Time;durP1;ratioP1;P1;durP2;ratioP2;P2;SDS_P1;SDS_P2;PMS_P1;PMS_P2;Temp;Humidity;BMP_temperature;BMP_pressure;BME280_temperature;BME280_humidity;BME280_pressure;Samples;Min_cycle;Max_cycle;Signal;HPM_P1;HPM_P2
2023/05/01 00:01:08;;;;;;;9.40;5.90;;;;;;;5.28;89.82;99360.97;4942701;28;20052;-57
2023/05/01 00:03:38;;;;;;;10.98;7.93;;;;;;;5.15;89.75;99323.97;4929812;28;20044;-53
2023/05/01 00:06:09;;;;;;;5.40;4.00;;;;;;;5.58;89.89;99367.59;4926078;28;20064;-55
2023/05/01 00:08:42;;;;;;;4.13;3.60;;;;;;;5.53;88.94;99353.81;4934916;28;20052;-52
2023/05/01 00:11:12;;;;;;;3.50;3.13;;;;;;;5.57;86.88;99365.88;4928342;28;20067;-54
2023/05/01 00:13:43;;;;;;;6.82;3.60;;;;;;;5.50;86.50;99372.00;4908778;28;20048;-54
2023/05/01 00:16:15;;;;;;;5.57;3.50;;;;;;;5.52;86.24;99359.03;4912773;28;20067;-55
2023/05/01 00:18:46;;;;;;;4.22;3.55;;;;;;;5.79;87.12;99357.84;4912676;28;20059;-54
2023/05/01 00:21:17;;;;;;;4.20;3.50;;;;;;;6.16;87.42;99367.81;4935021;28;20485;-56
2023/05/01 00:23:49;;;;;;;3.10;2.60;;;;;;;6.40;87.81;99362.31;4934316;28;20077;-56
2023/05/01 00:26:20;;;;;;;3.63;2.80;;;;;;;6.53;87.12;99364.72;4929609;28;20056;-55
2023/05/01 00:28:51;;;;;;;2.80;2.17;;;;;;;6.86;87.10;99366.84;4948674;28;20742;-54
2023/05/01 00:31:21;;;;;;;2.03;1.80;;;;;;;6.63;85.92;99280.66;4936772;28;20063;-57
2023/05/01 00:33:52;;;;;;;2.28;1.83;;;;;;;6.98;82.46;99375.31;4937407;28;20398;-56
2023/05/01 00:36:22;;;;;;;2.28;2.08;;;;;;;6.77;81.56;99381.69;4939118;28;20434;-55
2023/05/01 00:38:54;;;;;;;2.17;1.98;;;;;;;6.76;81.96;99387.75;4938108;28;20055;-55
2023/05/01 00:41:25;;;;;;;2.45;2.10;;;;;;;6.83;82.68;99382.44;4936798;28;20054;-56
2023/05/01 00:43:55;;;;;;;2.58;2.00;;;;;;;6.84;82.92;99368.59;4931701;28;20062;-55
2023/05/01 00:46:26;;;;;;;2.10;1.90;;;;;;;6.89;82.57;99386.72;4935726;28;20063;-56
2023/05/01 00:48:59;;;;;;;6.38;3.45;;;;;;;6.84;80.79;99384.19;4937048;28;20051;-57
2023/05/01 00:51:30;;;;;;;6.80;4.07;;;;;;;6.78;82.17;99373.00;4918932;28;20797;-55
2023/05/01 00:54:03;;;;;;;2.95;1.80;;;;;;;6.83;83.02;99387.63;4936734;28;20381;-57
2023/05/01 00:56:33;;;;;;;2.50;2.13;;;;;;;6.83;83.65;99366.88;4936145;28;20052;-57
2023/05/01 00:59:04;;;;;;;2.80;1.98;;;;;;;6.83;84.24;99377.25;4935538;28;20058;-55
2023/05/01 01:01:35;;;;;;;10.93;8.75;;;;;;;6.98;85.27;99385.69;4933723;28;20052;-55
2023/05/01 01:04:06;;;;;;;1.98;1.80;;;;;;;6.93;83.94;99387.50;4926655;28;20051;-57
2023/05/01 01:06:48;;;;;;;3.65;2.72;;;;;;;6.81;83.38;99379.00;4922935;28;20081;-57
2023/05/01 01:09:30;;;;;;;2.05;1.75;;;;;;;6.83;83.21;99392.81;4924031;28;20043;-57
2023/05/01 01:12:21;;;;;;;2.25;1.83;;;;;;;6.75;82.55;99393.84;4907712;28;20060;-56
2023/05/01 01:14:59;;;;;;;2.83;2.30;;;;;;;6.66;83.35;99389.63;4927200;28;20056;-56
2023/05/01 01:17:36;;;;;;;2.70;1.80;;;;;;;6.72;84.17;99394.75;4915213;28;20798;-55
2023/05/01 01:20:38;;;;;;;9.18;5.45;;;;;;;6.71;83.21;99398.19;4917170;28;20052;-56
2023/05/01 01:23:35;;;;;;;2.50;1.83;;;;;;;6.70;82.57;99391.31;4915940;28;20057;-56
2023/05/01 01:26:29;;;;;;;1.70;1.50;;;;;;;6.69;81.90;99399.97;4906189;28;20056;-57
2023/05/01 01:29:31;;;;;;;2.15;1.75;;;;;;;6.82;81.89;99390.28;4903565;28;20136;-55
2023/05/01 01:32:11;;;;;;;2.35;1.73;;;;;;;6.80;80.58;99398.06;4888440;28;20063;-56
2023/05/01 01:34:48;;;;;;;1.73;1.60;;;;;;;7.02;81.56;99397.75;4919231;28;20163;-57
2023/05/01 01:37:23;;;;;;;1.98;1.48;;;;;;;7.10;80.68;99395.88;4933906;28;20428;-56
2023/05/01 01:40:05;;;;;;;2.47;1.80;;;;;;;7.22;80.23;99394.84;4927957;28;20058;-56
2023/05/01 01:42:39;;;;;;;2.88;1.60;;;;;;;7.34;80.38;99400.69;4927742;28;20071;-57
2023/05/01 01:45:16;;;;;;;1.85;1.65;;;;;;;7.10;78.80;99360.38;4929946;28;20136;-55
2023/05/01 01:47:48;;;;;;;2.05;1.60;;;;;;;7.41;78.74;99397.97;4919817;28;20040;-58
2023/05/01 01:50:23;;;;;;;3.25;1.90;;;;;;;7.62;79.72;99395.00;4920002;28;20394;-57
2023/05/01 01:52:58;;;;;;;1.98;1.60;;;;;;;7.67;79.42;99398.38;4909736;28;20048;-58
2023/05/01 01:55:32;;;;;;;8.07;6.03;;;;;;;7.55;79.64;99390.78;4930219;28;24290;-53
2023/05/01 01:58:07;;;;;;;8.50;6.40;;;;;;;7.56;79.76;99405.50;4936387;28;20079;-56
2023/05/01 02:00:41;;;;;;;2.70;1.70;;;;;;;7.51;79.92;99396.91;4931031;28;20053;-57
2023/05/01 02:03:13;;;;;;;2.65;1.58;;;;;;;7.50;80.36;99396.06;4937700;28;20051;-56
2023/05/01 02:05:47;;;;;;;3.47;3.05;;;;;;;7.53;81.31;99395.16;4919034;28;20060;-56
2023/05/01 02:08:20;;;;;;;2.35;1.90;;;;;;;7.55;81.10;99403.78;4919538;28;20719;-57
2023/05/01 02:10:56;;;;;;;2.90;2.58;;;;;;;7.54;81.62;99376.09;4910417;28;20049;-57
2023/05/01 02:13:31;;;;;;;2.03;1.70;;;;;;;7.77;81.04;99397.31;4932233;28;20049;-57
2023/05/01 02:16:04;;;;;;;2.72;1.55;;;;;;;7.85;79.62;99396.31;4937284;28;20550;-57
2023/05/01 02:18:37;;;;;;;3.05;2.00;;;;;;;7.96;79.12;99399.53;4937397;28;20500;-57
2023/05/01 02:21:11;;;;;;;2.55;1.75;;;;;;;8.10;79.72;99399.28;4937546;28;20056;-58
2023/05/01 02:23:42;;;;;;;2.40;1.70;;;;;;;8.16;79.18;99401.75;4907354;28;20059;-54
2023/05/01 02:26:16;;;;;;;2.10;1.90;;;;;;;8.05;79.05;99394.16;4916379;28;20063;-57
2023/05/01 02:28:47;;;;;;;2.08;1.50;;;;;;;8.09;78.27;99401.03;4928849;28;20528;-57
2023/05/01 02:31:17;;;;;;;1.60;1.50;;;;;;;8.04;76.60;99402.88;4930951;28;20059;-56
2023/05/01 02:33:48;;;;;;;1.75;1.52;;;;;;;8.14;78.24;99404.41;4939714;28;20056;-55
2023/05/01 02:36:20;;;;;;;1.98;1.58;;;;;;;8.24;78.10;99398.97;4930382;28;20066;-56
2023/05/01 02:38:51;;;;;;;2.70;1.70;;;;;;;8.16;77.47;99402.63;4921619;28;20056;-57
2023/05/01 02:41:22;;;;;;;3.78;2.58;;;;;;;7.92;78.02;99338.09;4930126;28;20054;-57
2023/05/01 02:43:58;;;;;;;1.50;1.40;;;;;;;8.03;76.67;99389.88;4931612;28;20051;-54
2023/05/01 02:46:32;;;;;;;2.33;1.90;;;;;;;8.12;76.95;99395.75;4930217;28;20075;-56
2023/05/01 02:49:04;;;;;;;2.78;1.67;;;;;;;8.21;77.83;99403.41;4929661;28;20070;-58
2023/05/01 02:51:37;;;;;;;2.17;1.60;;;;;;;7.95;77.92;99371.81;4930159;28;20051;-56
2023/05/01 02:54:08;;;;;;;2.45;1.60;;;;;;;7.98;78.63;99397.78;4929060;28;20048;-57
2023/05/01 02:56:39;;;;;;;1.92;1.60;;;;;;;7.96;78.16;99404.75;4929450;28;20048;-57
2023/05/01 02:59:09;;;;;;;1.95;1.50;;;;;;;7.81;79.21;99376.44;4927524;28;20057;-57
2023/05/01 03:01:40;;;;;;;3.10;1.60;;;;;;;7.94;78.58;99404.78;4933657;28;20048;-57
2023/05/01 03:04:11;;;;;;;3.40;1.80;;;;;;;7.90;78.96;99404.88;4929260;28;20047;-56
2023/05/01 03:06:43;;;;;;;1.55;1.30;;;;;;;7.95;79.33;99408.25;4930438;28;20399;-57
2023/05/01 03:09:14;;;;;;;1.70;1.60;;;;;;;7.92;79.14;99413.50;4929814;28;20122;-56
2023/05/01 03:11:44;;;;;;;2.15;1.60;;;;;;;7.91;79.49;99412.66;4944880;28;20047;-57
2023/05/01 03:14:15;;;;;;;2.42;1.42;;;;;;;8.07;79.79;99418.41;4943061;28;20135;-56
2023/05/01 03:16:45;;;;;;;1.60;1.50;;;;;;;8.16;79.92;99420.84;4943884;28;20421;-58
2023/05/01 03:19:16;;;;;;;1.25;1.10;;;;;;;8.17;78.57;99419.94;4943570;28;20043;-58
2023/05/01 03:21:48;;;;;;;1.70;1.50;;;;;;;8.02;77.91;99411.59;4944273;28;20115;-56
2023/05/01 03:24:19;;;;;;;3.13;1.70;;;;;;;8.05;78.52;99417.59;4943280;28;22178;-58
2023/05/01 03:26:49;;;;;;;2.00;1.80;;;;;;;8.07;78.74;99422.78;4928379;28;20490;-57
2023/05/01 03:29:20;;;;;;;1.73;1.52;;;;;;;8.01;78.45;99431.53;4944605;28;20601;-58
2023/05/01 03:31:50;;;;;;;1.80;1.50;;;;;;;8.00;79.32;99427.22;4943470;28;20054;-57
2023/05/01 03:34:21;;;;;;;1.73;1.20;;;;;;;8.06;79.26;99426.25;4939190;28;20060;-58
2023/05/01 03:36:53;;;;;;;2.00;1.90;;;;;;;8.07;79.11;99428.81;4938278;28;20085;-57
2023/05/01 03:39:23;;;;;;;1.88;1.50;;;;;;;7.98;78.44;99431.59;4939852;28;20174;-58
2023/05/01 03:41:54;;;;;;;2.78;2.20;;;;;;;7.92;78.91;99434.31;4939472;28;20047;-58
2023/05/01 03:44:25;;;;;;;3.80;2.70;;;;;;;7.92;79.25;99440.38;4934975;28;20040;-58
2023/05/01 03:46:55;;;;;;;2.75;2.00;;;;;;;7.80;79.20;99440.59;4934777;28;20217;-58
2023/05/01 03:49:26;;;;;;;2.22;2.03;;;;;;;7.73;79.80;99434.66;4929689;28;20055;-57
2023/05/01 03:51:58;;;;;;;2.80;2.42;;;;;;;7.73;80.23;99445.03;4934772;28;20058;-57
2023/05/01 03:54:29;;;;;;;4.47;3.30;;;;;;;7.64;80.16;99440.03;4936574;28;20049;-58
2023/05/01 03:56:59;;;;;;;7.65;6.30;;;;;;;7.56;81.10;99447.97;4916269;28;20045;-57
2023/05/01 03:59:30;;;;;;;7.75;5.22;;;;;;;7.45;81.79;99443.81;4941471;28;20159;-58
2023/05/01 04:02:00;;;;;;;6.40;3.88;;;;;;;7.34;82.67;99455.25;4936814;28;20974;-58
2023/05/01 04:04:32;;;;;;;4.97;3.33;;;;;;;7.27;84.15;99453.63;4934095;28;20055;-58
2023/05/01 04:07:04;;;;;;;5.68;3.90;;;;;;;7.26;84.56;99464.94;4935794;28;20059;-58
2023/05/01 04:09:35;;;;;;;4.57;3.65;;;;;;;7.27;85.88;99464.03;4921508;28;20490;-56
2023/05/01 04:12:05;;;;;;;5.20;3.80;;;;;;;7.24;86.11;99466.69;4942950;28;20059;-57
2023/05/01 04:14:36;;;;;;;4.60;3.28;;;;;;;7.24;86.20;99466.69;4939371;28;20568;-55
2023/05/01 04:17:07;;;;;;;3.97;3.10;;;;;;;7.12;85.75;99472.06;4948159;28;20397;-56
2023/05/01 04:19:37;;;;;;;15.20;6.55;;;;;;;7.15;86.52;99466.81;4932339;28;20052;-54
2023/05/01 04:22:09;;;;;;;13.63;6.10;;;;;;;7.02;86.27;99439.31;4906219;28;20777;-56
2023/05/01 04:24:40;;;;;;;9.13;5.20;;;;;;;7.20;86.52;99470.19;4895108;28;20060;-55
2023/05/01 04:27:10;;;;;;;6.10;4.55;;;;;;;7.18;86.02;99461.56;4900557;28;20049;-57
2023/05/01 04:29:41;;;;;;;8.00;4.68;;;;;;;7.17;85.98;99470.25;4910278;28;20044;-53
2023/05/01 04:32:12;;;;;;;5.65;4.50;;;;;;;7.10;86.30;99479.00;4943222;28;20509;-54
2023/05/01 04:34:42;;;;;;;6.45;4.47;;;;;;;7.08;87.07;99470.38;4947430;28;20047;-57
2023/05/01 04:37:16;;;;;;;7.57;4.90;;;;;;;7.05;88.02;99478.22;4910144;28;20872;-57
2023/05/01 04:39:47;;;;;;;8.50;5.60;;;;;;;6.98;87.74;99484.38;4909363;28;20459;-54
2023/05/01 04:42:17;;;;;;;10.20;6.25;;;;;;;7.01;89.40;99492.13;4936392;28;20051;-56
2023/05/01 04:44:48;;;;;;;11.60;6.18;;;;;;;7.04;89.32;99485.16;4947506;28;20074;-55
2023/05/01 04:47:19;;;;;;;9.77;4.97;;;;;;;6.99;89.23;99488.69;4917580;28;20075;-56
2023/05/01 04:49:49;;;;;;;5.65;4.80;;;;;;;7.01;89.50;99497.31;4897052;28;20060;-56
2023/05/01 04:52:21;;;;;;;6.03;4.47;;;;;;;6.62;90.35;99429.50;4893201;28;20127;-56
2023/05/01 04:54:52;;;;;;;9.38;6.47;;;;;;;7.02;90.40;99481.72;4896371;28;20059;-58
2023/05/01 04:57:22;;;;;;;7.18;5.10;;;;;;;7.13;90.65;99497.16;4896158;28;20591;-57
2023/05/01 04:59:53;;;;;;;15.15;10.25;;;;;;;7.13;90.57;99504.94;4895450;28;20059;-56
2023/05/01 05:02:24;;;;;;;5.93;4.15;;;;;;;7.06;89.73;99504.19;4909904;28;20052;-52
2023/05/01 05:04:55;;;;;;;11.55;4.22;;;;;;;7.04;88.93;99511.16;4914232;28;20059;-57
2023/05/01 05:07:27;;;;;;;5.45;4.47;;;;;;;7.01;89.49;99511.16;4902824;28;20051;-57
2023/05/01 05:09:58;;;;;;;5.70;3.83;;;;;;;6.90;88.95;99519.09;4909263;28;20072;-55
2023/05/01 05:12:28;;;;;;;6.45;3.80;;;;;;;6.84;88.97;99518.31;4912589;28;20083;-56
2023/05/01 05:14:59;;;;;;;5.68;4.30;;;;;;;6.72;89.29;99492.53;4894710;28;20122;-55
2023/05/01 05:17:30;;;;;;;6.00;4.28;;;;;;;6.96;89.36;99522.50;4932177;28;20061;-56
2023/05/01 05:20:00;;;;;;;4.85;3.42;;;;;;;6.93;88.45;99525.16;4923814;28;20088;-56
2023/05/01 05:22:32;;;;;;;5.35;3.70;;;;;;;6.87;88.36;99528.69;4914963;28;20052;-54
2023/05/01 05:25:04;;;;;;;8.52;4.30;;;;;;;6.80;88.14;99522.72;4911690;28;20491;-54
2023/05/01 05:27:36;;;;;;;5.97;3.90;;;;;;;6.63;87.33;99529.84;4905626;28;20091;-53
2023/05/01 05:30:09;;;;;;;6.53;4.30;;;;;;;6.41;87.93;99537.88;4917565;28;20050;-57
2023/05/01 05:32:39;;;;;;;8.10;4.30;;;;;;;6.38;87.95;99535.31;4918516;28;20052;-54
2023/05/01 05:35:10;;;;;;;22.27;10.77;;;;;;;6.24;88.31;99521.63;4924359;28;20053;-57
2023/05/01 05:37:42;;;;;;;16.95;7.80;;;;;;;6.38;88.85;99558.66;4918207;28;20049;-56
2023/05/01 05:40:15;;;;;;;5.38;2.95;;;;;;;6.10;84.68;99559.84;4917053;28;20560;-56
2023/05/01 05:42:45;;;;;;;5.00;2.10;;;;;;;5.84;80.85;99561.75;4918191;28;20052;-57
2023/05/01 05:45:15;;;;;;;4.90;2.00;;;;;;;5.73;82.41;99554.94;4900142;28;20060;-56
2023/05/01 05:47:46;;;;;;;5.43;1.83;;;;;;;5.51;80.53;99559.41;4918643;28;20049;-56
2023/05/01 05:50:16;;;;;;;5.82;2.45;;;;;;;5.48;81.95;99575.00;4919204;28;20135;-57
2023/05/01 05:52:49;;;;;;;4.35;2.40;;;;;;;5.43;82.21;99582.78;4916593;28;20047;-56
2023/05/01 05:55:19;;;;;;;5.13;2.78;;;;;;;5.19;81.79;99543.22;4914413;28;20499;-57
2023/05/01 05:57:50;;;;;;;6.88;2.45;;;;;;;5.36;81.11;99570.75;4925642;28;20063;-56
2023/05/01 06:00:21;;;;;;;5.45;2.92;;;;;;;5.38;80.23;99584.56;4925374;28;20492;-56
2023/05/01 06:02:51;;;;;;;6.15;2.38;;;;;;;5.36;82.09;99601.84;4897785;28;21118;-56
2023/05/01 06:05:22;;;;;;;8.75;3.10;;;;;;;5.26;81.02;99594.97;4909618;28;20779;-56
2023/05/01 06:07:55;;;;;;;10.07;4.13;;;;;;;5.28;82.51;99588.06;4905595;28;20052;-58
2023/05/01 06:10:26;;;;;;;9.82;3.08;;;;;;;5.36;81.11;99599.25;4913675;28;20494;-53
2023/05/01 06:12:56;;;;;;;8.07;3.33;;;;;;;5.32;81.94;99594.97;4912342;28;20067;-55
2023/05/01 06:15:42;;;;;;;6.78;3.00;;;;;;;5.30;82.16;99589.78;4901128;28;20070;-56
2023/05/01 06:18:14;;;;;;;5.35;3.33;;;;;;;5.45;81.47;99612.16;4912444;28;20139;-56
2023/05/01 06:20:46;;;;;;;6.68;3.22;;;;;;;5.49;82.43;99613.84;4910003;28;20060;-56
2023/05/01 06:23:20;;;;;;;10.93;3.60;;;;;;;5.56;81.73;99620.69;4907204;28;20851;-56
2023/05/01 06:25:51;;;;;;;9.15;3.45;;;;;;;5.61;81.12;99616.34;4901526;28;20055;-56
2023/05/01 06:28:21;;;;;;;8.88;3.00;;;;;;;5.71;80.77;99624.91;4925887;28;20059;-57
2023/05/01 06:30:54;;;;;;;6.47;2.67;;;;;;;5.79;79.92;99627.47;4929861;28;20048;-55
2023/05/01 06:33:25;;;;;;;7.03;3.58;;;;;;;5.59;78.39;99605.16;4930939;28;20573;-56
2023/05/01 06:35:58;;;;;;;7.72;3.42;;;;;;;5.76;78.81;99636.13;4921999;28;20387;-55
2023/05/01 06:38:31;;;;;;;8.52;2.88;;;;;;;5.77;78.77;99624.91;4899268;28;20393;-55
2023/05/01 06:41:02;;;;;;;6.35;3.05;;;;;;;5.84;78.76;99626.59;4893525;28;20067;-57
2023/05/01 06:43:32;;;;;;;6.07;2.75;;;;;;;5.96;77.87;99646.38;4912233;28;20063;-56
2023/05/01 06:46:03;;;;;;;7.75;3.20;;;;;;;6.02;78.81;99645.50;4911333;28;20055;-57
2023/05/01 06:48:33;;;;;;;7.25;2.85;;;;;;;5.93;77.21;99628.22;4910678;28;20048;-57
2023/05/01 06:51:04;;;;;;;8.13;2.60;;;;;;;6.03;78.13;99648.06;4897959;28;20053;-56
2023/05/01 06:53:37;;;;;;;8.90;2.97;;;;;;;5.90;78.32;99633.44;4911646;28;20478;-56
2023/05/01 06:56:08;;;;;;;11.55;3.05;;;;;;;6.09;78.61;99654.06;4893716;28;20053;-58
2023/05/01 06:58:38;;;;;;;7.60;2.75;;;;;;;6.15;78.41;99659.22;4892907;28;20152;-57
2023/05/01 07:01:10;;;;;;;7.22;2.53;;;;;;;6.20;78.36;99665.22;4899623;28;20448;-55
2023/05/01 07:03:41;;;;;;;9.50;3.00;;;;;;;6.17;77.38;99649.69;4913684;28;20047;-56
2023/05/01 07:06:11;;;;;;;7.43;3.00;;;;;;;6.12;76.75;99621.19;4934078;28;20055;-57
2023/05/01 07:08:44;;;;;;;4.90;2.83;;;;;;;6.68;74.32;99671.69;4934793;28;20052;-56
2023/05/01 07:11:14;;;;;;;6.28;2.72;;;;;;;7.06;72.19;99677.34;4933338;28;20117;-56
2023/05/01 07:13:45;;;;;;;4.30;2.38;;;;;;;7.06;64.17;99659.19;4930586;28;20052;-57
2023/05/01 07:16:15;;;;;;;8.13;2.72;;;;;;;7.21;64.30;99684.13;4913866;28;20060;-55
2023/05/01 07:18:46;;;;;;;5.63;2.80;;;;;;;7.28;64.98;99696.16;4908895;28;20059;-56
2023/05/01 07:21:17;;;;;;;7.95;3.10;;;;;;;7.01;59.94;99693.00;4916807;28;20051;-57
2023/05/01 07:23:49;;;;;;;8.82;3.30;;;;;;;6.77;58.32;99725.28;4911086;28;20605;-57
2023/05/01 07:26:20;;;;;;;7.75;3.10;;;;;;;6.64;59.53;99713.28;4898483;28;21124;-57
2023/05/01 07:28:50;;;;;;;5.38;2.58;;;;;;;6.68;60.07;99720.16;4921581;28;20075;-56
2023/05/01 07:31:21;;;;;;;3.65;2.42;;;;;;;6.68;58.52;99723.63;4918635;28;20060;-58
2023/05/01 07:33:52;;;;;;;5.47;2.70;;;;;;;6.56;55.54;99725.47;4917760;28;20483;-59
2023/05/01 07:36:22;;;;;;;8.02;2.72;;;;;;;6.47;59.02;99742.84;4914913;28;20056;-58
2023/05/01 07:38:55;;;;;;;3.72;2.40;;;;;;;6.44;64.05;99727.31;4918096;28;20055;-57
2023/05/01 07:41:26;;;;;;;8.50;2.63;;;;;;;6.47;67.40;99742.00;4916872;28;20437;-57
2023/05/01 07:43:58;;;;;;;6.85;2.80;;;;;;;6.36;67.09;99744.66;4916991;28;20471;-57
2023/05/01 07:46:29;;;;;;;6.57;2.70;;;;;;;6.42;67.04;99744.63;4916647;28;20056;-55
2023/05/01 07:49:00;;;;;;;7.35;2.47;;;;;;;6.46;67.24;99741.16;4928033;28;20048;-55
2023/05/01 07:51:30;;;;;;;5.55;2.33;;;;;;;6.57;66.41;99747.97;4919903;28;20079;-58
2023/05/01 07:54:03;;;;;;;5.32;2.30;;;;;;;6.58;65.18;99750.53;4924277;28;20514;-57
2023/05/01 07:56:33;;;;;;;3.75;2.25;;;;;;;6.74;64.40;99746.09;4923323;28;20070;-57
2023/05/01 07:59:04;;;;;;;5.25;2.67;;;;;;;6.79;62.59;99744.31;4916447;28;20444;-56
2023/05/01 08:01:34;;;;;;;3.88;2.58;;;;;;;6.87;63.66;99752.88;4933590;28;20506;-57
2023/05/01 08:04:06;;;;;;;6.85;2.53;;;;;;;6.91;63.24;99753.72;4935712;28;20393;-57
2023/05/01 08:06:37;;;;;;;8.40;2.63;;;;;;;6.80;62.00;99751.22;4928482;28;20081;-57
2023/05/01 08:09:09;;;;;;;5.43;2.25;;;;;;;6.72;59.58;99760.81;4931312;28;20044;-57
2023/05/01 08:11:40;;;;;;;4.90;2.40;;;;;;;6.66;59.61;99763.47;4908336;28;21067;-57
2023/05/01 08:14:11;;;;;;;6.88;2.38;;;;;;;6.62;59.62;99769.56;4929113;28;20251;-57
2023/05/01 08:16:41;;;;;;;4.63;2.63;;;;;;;6.58;59.90;99775.66;4916506;28;20053;-56
2023/05/01 08:19:12;;;;;;;5.72;2.35;;;;;;;6.53;58.93;99767.03;4916722;28;20051;-58
2023/05/01 08:21:43;;;;;;;5.90;2.65;;;;;;;6.48;59.02;99780.91;4916266;28;20048;-57
2023/05/01 08:24:15;;;;;;;6.00;2.22;;;;;;;6.50;58.75;99787.84;4917049;28;20054;-57
2023/05/01 08:26:46;;;;;;;5.10;2.30;;;;;;;6.48;58.16;99775.72;4934474;28;20207;-57
2023/05/01 08:29:16;;;;;;;6.03;2.60;;;;;;;6.45;58.77;99775.75;4939399;28;20059;-57
2023/05/01 08:31:47;;;;;;;7.18;2.63;;;;;;;6.45;58.76;99780.94;4941693;28;20134;-57
2023/05/01 08:34:21;;;;;;;9.30;2.67;;;;;;;6.39;59.23;99785.28;4938914;28;20165;-57
2023/05/01 08:36:52;;;;;;;7.25;3.25;;;;;;;6.35;59.14;99787.06;4917819;28;20078;-58
2023/05/01 08:39:25;;;;;;;4.80;2.60;;;;;;;6.31;59.12;99782.75;4928386;28;20044;-58
2023/05/01 08:41:57;;;;;;;5.22;2.60;;;;;;;6.26;59.71;99797.50;4939928;28;20063;-58
2023/05/01 08:44:28;;;;;;;6.60;3.00;;;;;;;6.20;59.25;99805.31;4943655;28;20055;-58
2023/05/01 08:47:11;;;;;;;6.78;2.55;;;;;;;5.97;59.16;99771.75;4941536;28;20048;-57
2023/05/01 08:49:42;;;;;;;5.45;2.63;;;;;;;6.08;59.09;99795.00;4932607;28;20539;-60
2023/05/01 08:52:14;;;;;;;6.13;2.95;;;;;;;6.17;59.86;99815.72;4942657;28;20054;-56
2023/05/01 08:54:49;;;;;;;5.40;3.00;;;;;;;6.04;60.04;99800.22;4942618;28;20051;-56
2023/05/01 08:57:21;;;;;;;7.50;3.20;;;;;;;6.12;60.53;99823.53;4924469;28;20048;-56
2023/05/01 08:59:52;;;;;;;6.38;2.40;;;;;;;6.07;60.97;99834.81;4927434;28;20051;-58
2023/05/01 09:02:26;;;;;;;5.68;2.75;;;;;;;5.83;61.20;99815.84;4926691;28;20067;-57
2023/05/01 09:05:02;;;;;;;6.47;2.30;;;;;;;5.82;59.42;99834.88;4927338;28;20052;-57
2023/05/01 09:07:36;;;;;;;6.00;3.00;;;;;;;5.75;57.27;99854.75;4927576;28;20120;-58
2023/05/01 09:10:10;;;;;;;5.32;2.60;;;;;;;5.68;56.92;99857.38;4928748;28;20134;-60
2023/05/01 09:12:43;;;;;;;6.97;2.25;;;;;;;5.55;56.39;99880.75;4921266;28;20048;-57
2023/05/01 09:15:17;;;;;;;8.90;2.50;;;;;;;5.45;57.24;99881.63;4928233;28;20048;-58
2023/05/01 09:17:48;;;;;;;6.38;2.22;;;;;;;5.40;57.19;99883.38;4927045;28;20508;-57
2023/05/01 09:20:20;;;;;;;5.72;2.13;;;;;;;5.08;57.08;99855.75;4926163;28;20044;-58
2023/05/01 09:22:55;;;;;;;5.43;2.33;;;;;;;5.09;56.86;99890.28;4920831;28;20044;-57
2023/05/01 09:25:31;;;;;;;4.97;2.20;;;;;;;4.92;57.83;99900.66;4928258;28;20048;-56
2023/05/01 09:28:09;;;;;;;5.55;2.40;;;;;;;4.72;58.01;99906.66;4929607;28;20062;-57
2023/05/01 09:30:48;;;;;;;5.68;2.30;;;;;;;4.56;58.39;99907.47;4910836;28;20056;-56
2023/05/01 09:37:31;;;;;;;7.88;2.45;;;;;;;4.11;59.95;99924.56;4817425;28;20469;-57
2023/05/01 09:40:30;;;;;;;8.10;3.00;;;;;;;3.95;60.95;99928.81;4808313;28;21106;-58
2023/05/01 09:43:03;;;;;;;4.88;2.33;;;;;;;3.86;61.13;99934.78;4810441;28;21133;-57
2023/05/01 09:45:35;;;;;;;8.68;2.60;;;;;;;3.78;61.37;99945.97;4829526;28;20061;-58
2023/05/01 09:48:13;;;;;;;4.68;2.60;;;;;;;3.59;61.73;99944.97;4826800;28;20098;-57
2023/05/01 09:50:48;;;;;;;5.70;2.92;;;;;;;3.55;62.26;99953.56;4820059;28;20443;-57
2023/05/01 09:53:34;;;;;;;7.90;2.47;;;;;;;3.43;63.03;99970.69;4828938;28;20051;-57
2023/05/01 09:56:09;;;;;;;7.70;2.60;;;;;;;3.36;63.60;99978.38;4818227;28;20061;-58
2023/05/01 09:58:52;;;;;;;8.65;2.85;;;;;;;3.26;63.60;99982.59;4826046;28;20055;-57
2023/05/01 10:01:40;;;;;;;9.55;3.00;;;;;;;3.22;64.59;99993.72;4819346;28;20096;-57
2023/05/01 10:04:16;;;;;;;8.75;3.33;;;;;;;3.14;65.07;100009.16;4823534;28;20151;-57
2023/05/01 10:06:51;;;;;;;8.50;3.00;;;;;;;3.01;65.45;100018.50;4832445;28;20054;-57
2023/05/01 10:09:31;;;;;;;8.70;2.80;;;;;;;2.91;66.06;100021.84;4823249;28;20046;-57
2023/05/01 10:12:04;;;;;;;;;;;;;;;2.88;66.60;100036.44;4823701;28;20068;-58
2023/05/01 10:14:52;;;;;;;14.73;6.07;;;;;;;2.80;66.76;100033.78;4938259;28;20366;-57
2023/05/01 10:17:25;;;;;;;7.53;3.25;;;;;;;2.73;67.08;100050.03;4934165;28;20052;-57
2023/05/01 10:20:02;;;;;;;7.00;3.35;;;;;;;2.63;67.81;100056.78;4928932;28;20457;-57
2023/05/01 10:22:35;;;;;;;7.60;3.72;;;;;;;2.47;68.49;100053.16;4935799;28;20050;-57
2023/05/01 10:25:21;;;;;;;9.35;3.90;;;;;;;2.47;68.24;100060.00;4945797;28;20638;-56
2023/05/01 10:27:54;;;;;;;6.03;3.17;;;;;;;2.44;68.70;100071.13;4941392;28;20109;-57
2023/05/01 10:30:27;;;;;;;11.68;4.65;;;;;;;2.38;68.98;100066.78;4921430;28;20052;-58
2023/05/01 10:32:59;;;;;;;13.95;4.00;;;;;;;2.32;69.25;100076.13;4924480;28;20089;-57
2023/05/01 10:35:36;;;;;;;12.48;4.40;;;;;;;2.23;68.93;100081.19;4906467;28;20068;-58
2023/05/01 10:38:20;;;;;;;14.45;4.13;;;;;;;2.14;70.02;100098.22;4910589;28;20059;-57
2023/05/01 10:40:54;;;;;;;9.88;4.07;;;;;;;2.08;69.78;100113.59;4918983;28;20059;-57
2023/05/01 10:43:27;;;;;;;9.73;4.20;;;;;;;1.97;69.97;100101.38;4923539;28;20139;-57
2023/05/01 10:46:30;;;;;;;9.32;3.60;;;;;;;1.98;70.22;100127.19;4923318;28;20059;-57
2023/05/01 10:49:01;;;;;;;9.98;4.05;;;;;;;1.92;70.60;100137.38;4893155;28;20140;-58
2023/05/01 10:52:00;;;;;;;10.70;3.60;;;;;;;1.82;72.41;100145.81;4907059;28;20043;-55
2023/05/01 10:54:32;;;;;;;9.90;3.50;;;;;;;1.65;74.15;100148.97;4908007;28;20799;-58
2023/05/01 10:57:04;;;;;;;6.90;3.60;;;;;;;1.45;75.72;100145.16;4916962;28;20051;-56
2023/05/01 11:00:11;;;;;;;11.02;4.10;;;;;;;1.43;76.34;100170.00;4918042;28;20467;-57
2023/05/01 11:02:43;;;;;;;11.10;4.38;;;;;;;1.19;76.57;100158.38;4907439;28;20052;-56
2023/05/01 11:05:16;;;;;;;12.00;4.10;;;;;;;1.25;76.25;100179.13;4917314;28;20539;-56
2023/05/01 11:08:31;;;;;;;11.95;4.28;;;;;;;1.25;75.57;100180.81;4911438;28;20065;-57
2023/05/01 11:11:35;;;;;;;9.07;4.60;;;;;;;1.29;74.61;100195.47;4896943;28;20048;-55
2023/05/01 11:14:07;;;;;;;18.88;8.38;;;;;;;1.19;75.30;100194.41;4912097;28;20071;-56
2023/05/01 11:16:45;;;;;;;13.25;6.70;;;;;;;0.94;75.59;100187.03;4925138;28;20048;-58
2023/05/01 11:19:51;;;;;;;12.93;4.65;;;;;;;1.10;74.54;100207.13;4913262;28;20079;-57
2023/05/01 11:22:21;;;;;;;14.90;4.10;;;;;;;1.13;73.93;100214.91;4912875;28;20052;-57
2023/05/01 11:24:55;;;;;;;9.82;4.53;;;;;;;1.07;74.08;100214.75;4925161;28;20048;-57
2023/05/01 11:27:27;;;;;;;9.13;4.40;;;;;;;1.03;73.83;100218.13;4925473;28;20047;-58
2023/05/01 11:30:00;;;;;;;12.05;4.47;;;;;;;0.86;75.72;100220.31;4939548;28;20486;-57
2023/05/01 11:32:30;;;;;;;10.75;3.88;;;;;;;0.59;80.37;100225.69;4913391;28;20726;-57
2023/05/01 11:35:03;;;;;;;7.68;4.05;;;;;;;0.36;82.21;100233.72;4935363;28;20057;-59
2023/05/01 11:37:46;;;;;;;10.68;4.55;;;;;;;-0.03;83.35;100197.63;4935020;28;20063;-59
2023/05/01 11:40:25;;;;;;;8.88;4.25;;;;;;;0.06;83.34;100223.56;4928385;27;20120;-59
2023/05/01 11:43:07;;;;;;;10.52;4.00;;;;;;;-0.25;83.19;100175.66;4912478;28;20044;-59
2023/05/01 11:45:41;;;;;;;16.35;5.00;;;;;;;-0.19;83.20;100180.97;4924844;28;20403;-59
2023/05/01 11:48:16;;;;;;;12.57;5.40;;;;;;;-0.37;82.40;100170.25;4926059;28;20043;-58
2023/05/01 11:50:49;;;;;;;9.30;5.03;;;;;;;0.16;82.85;100247.78;4936625;28;20051;-59
2023/05/01 11:53:19;;;;;;;8.35;5.50;;;;;;;0.14;83.07;100262.28;4921795;28;20692;-58
2023/05/01 11:55:50;;;;;;;12.00;5.95;;;;;;;0.11;83.43;100267.34;4926105;28;20466;-59
2023/05/01 11:58:33;;;;;;;16.67;6.95;;;;;;;0.06;83.46;100274.09;4925946;28;20503;-58
2023/05/01 12:01:06;;;;;;;10.10;5.63;;;;;;;-0.01;83.50;100284.19;4912361;28;20067;-56
2023/05/01 12:03:45;;;;;;;12.27;5.10;;;;;;;-0.03;83.17;100285.81;4922929;28;20040;-56
2023/05/01 12:06:18;;;;;;;13.07;5.15;;;;;;;-0.06;82.66;100285.75;4910312;28;20055;-57
2023/05/01 12:08:52;;;;;;;17.80;6.13;;;;;;;-0.12;82.89;100293.31;4918932;28;20117;-56
2023/05/01 12:11:22;;;;;;;11.60;5.72;;;;;;;-0.14;82.96;100297.53;4925759;28;20048;-57
2023/05/01 12:13:53;;;;;;;13.55;7.50;;;;;;;-0.18;82.44;100300.81;4936160;28;20055;-57